Overview Statistics Trail Chart Weather Telemetry Raw packets
 

This is the latest recevied weather packets stored in our database for station/object OE6PWE-13. If no packets are shown the sender has not sent any weather packets the latest 10 day(s).

<< 9 10 11 12 13 14 15 >>
Time Temp. Humidity Pressure Rain* Wind** Luminosity Snow
1788465620 19.44° C 87% 1019 hPa 0 mm - - -
1788464711 19.44° C 87% 1019 hPa 0 mm - - -
1788463812 19.44° C 87% 1019 hPa 0 mm - - -
1788462911 19.44° C 88% 1019 hPa 0 mm - - -
1788462011 19.44° C 83% 1019 hPa 0 mm - - -
1788461111 19.44° C 86% 1019 hPa 0 mm - - -
1788460212 20° C 84% 1019 hPa 0 mm - - -
1788459311 20.56° C 81% 1018 hPa 0 mm - - -
1788458411 21.67° C 78% 1018 hPa 0 mm - - -
1788457511 22.78° C 72% 1018 hPa 0 mm - - -
1788456612 23.89° C 71% 1018 hPa 0 mm - - -
1788455711 25.56° C 65% 1017 hPa 0 mm - - -
1788454812 26.67° C 60% 1017 hPa 0 mm - - -
1788453912 27.22° C 57% 1017 hPa 0 mm - - -
1788453011 27.78° C 53% 1017 hPa 0 mm - - -
1788452112 29.44° C 48% 1017 hPa 0 mm - - -
1788451212 29.44° C 44% 1017 hPa 0 mm - - -
1788450311 30° C 45% 1017 hPa 0 mm - - -
1788449412 30.56° C 42% 1017 hPa 0 mm - - -
1788448512 30° C 44% 1017 hPa 0 mm - - -
1788447612 30° C 45% 1017 hPa 0 mm - - -
1788446712 29.44° C 45% 1017 hPa 0 mm - - -
1788445811 29.44° C 45% 1017 hPa 0 mm - - -
1788444911 30° C 45% 1017 hPa 0 mm - - -
1788444012 28.89° C 49% 1017 hPa 0 mm - - -

* Rain latest hour (hover to see other rain measurements)
** Current wind speed in m/s (hover to see current wind gust speed)